Metar GG30 METAR message from awiacja.imgw.pl Metar G30 EPRZ METAR EPRZ 240430Z 08003KT 3500 BR NSC 08/08 Q1017 =